createdAt,value
2022-08-08T00:02:03.387Z,22.00
2022-08-08T00:04:49.436Z,21.94
2022-08-08T00:07:33.672Z,21.94
2022-08-08T00:10:13.581Z,21.96
2022-08-08T00:14:17.225Z,21.96
2022-08-08T00:16:25.136Z,21.33
2022-08-08T00:19:13.968Z,21.67
2022-08-08T00:21:50.053Z,21.51
2022-08-08T00:24:35.255Z,21.25
2022-08-08T00:27:08.215Z,21.56
2022-08-08T00:29:42.350Z,21.16
2022-08-08T00:32:36.999Z,20.97
2022-08-08T00:35:22.798Z,21.40
2022-08-08T00:38:16.946Z,21.45
2022-08-08T00:41:14.802Z,21.25
2022-08-08T00:44:01.300Z,21.34
2022-08-08T00:46:59.763Z,21.30
2022-08-08T00:49:50.410Z,21.01
2022-08-08T00:52:40.307Z,21.22
2022-08-08T00:55:53.365Z,21.13
2022-08-08T00:58:54.784Z,21.26
2022-08-08T01:01:38.397Z,21.02
2022-08-08T01:05:08.935Z,21.24
2022-08-08T01:07:58.559Z,21.23
2022-08-08T01:10:52.419Z,21.22
2022-08-08T01:13:58.231Z,21.29
2022-08-08T01:17:12.185Z,21.25
2022-08-08T01:20:03.763Z,21.20
2022-08-08T01:23:06.123Z,21.25
2022-08-08T01:26:15.840Z,21.25
2022-08-08T01:29:05.656Z,21.22
2022-08-08T01:32:16.058Z,21.17
2022-08-08T01:34:57.358Z,21.16
2022-08-08T01:38:02.163Z,21.19
2022-08-08T01:40:58.998Z,21.21
2022-08-08T01:43:50.620Z,21.18
2022-08-08T01:46:52.424Z,21.21
2022-08-08T01:49:45.888Z,20.72
2022-08-08T01:53:01.169Z,21.13
2022-08-08T01:56:26.168Z,21.17
2022-08-08T01:58:38.465Z,20.66
2022-08-08T02:01:54.733Z,21.18
2022-08-08T02:04:37.467Z,21.06
2022-08-08T02:07:16.632Z,20.87
2022-08-08T02:10:02.824Z,21.06
2022-08-08T02:12:57.129Z,21.13
2022-08-08T02:15:43.540Z,21.09
2022-08-08T02:18:33.256Z,21.13
2022-08-08T02:21:32.593Z,20.67
2022-08-08T02:24:26.916Z,21.17
2022-08-08T02:27:04.986Z,20.21
2022-08-08T02:30:06.473Z,21.08
2022-08-08T02:33:03.326Z,20.95
2022-08-08T02:35:35.763Z,20.95
2022-08-08T02:38:44.801Z,21.01
2022-08-08T02:41:58.962Z,21.01
2022-08-08T02:44:37.593Z,20.86
2022-08-08T02:47:54.729Z,20.88
2022-08-08T02:50:55.635Z,20.33
2022-08-08T02:53:56.769Z,20.84
2022-08-08T02:56:55.208Z,20.79
2022-08-08T03:00:26.479Z,20.73
2022-08-08T03:05:00.656Z,20.66
2022-08-08T03:06:40.789Z,20.49
2022-08-08T03:09:52.392Z,20.15
2022-08-08T03:12:36.304Z,20.37
2022-08-08T03:15:59.072Z,20.35
2022-08-08T03:18:53.118Z,20.37
2022-08-08T03:21:26.975Z,20.25
2022-08-08T03:24:08.345Z,20.01
2022-08-08T03:26:42.087Z,19.92
2022-08-08T03:29:26.735Z,19.87
2022-08-08T03:32:14.282Z,19.83
2022-08-08T03:34:41.812Z,19.85
2022-08-08T03:37:59.550Z,20.05
2022-08-08T03:40:06.557Z,19.96
2022-08-08T03:42:39.142Z,19.97
2022-08-08T03:46:03.265Z,19.94
2022-08-08T03:48:08.330Z,19.88
2022-08-08T03:50:50.517Z,19.86
2022-08-08T03:53:24.190Z,19.85
2022-08-08T03:56:09.980Z,19.53
2022-08-08T03:58:56.933Z,19.40
2022-08-08T04:02:15.820Z,19.72
2022-08-08T04:04:31.185Z,19.67
2022-08-08T04:07:01.470Z,19.76
2022-08-08T04:09:58.888Z,19.61
2022-08-08T04:12:26.889Z,19.71
2022-08-08T04:14:54.454Z,18.85
2022-08-08T04:17:57.719Z,19.83
2022-08-08T04:20:10.863Z,19.72
2022-08-08T04:22:38.537Z,19.45
2022-08-08T04:25:08.249Z,19.69
2022-08-08T04:28:01.712Z,19.38
2022-08-08T04:30:27.399Z,19.99
2022-08-08T04:32:54.896Z,19.66
2022-08-08T04:35:29.848Z,19.34
2022-08-08T04:38:00.881Z,19.60
2022-08-08T04:40:35.422Z,19.87
2022-08-08T04:43:03.559Z,19.35
2022-08-08T04:45:37.440Z,19.95
2022-08-08T04:48:06.306Z,19.81
2022-08-08T04:50:38.855Z,19.50
2022-08-08T04:53:14.154Z,19.95
2022-08-08T04:56:00.257Z,19.80
2022-08-08T04:58:31.350Z,19.88
2022-08-08T05:01:08.962Z,19.86
2022-08-08T05:04:09.238Z,19.67
2022-08-08T05:06:30.983Z,19.92
2022-08-08T05:09:02.268Z,19.92
2022-08-08T05:11:38.860Z,19.98
2022-08-08T05:14:12.276Z,19.98
2022-08-08T05:16:53.304Z,19.98
2022-08-08T05:20:10.050Z,20.07
2022-08-08T05:22:17.647Z,19.82
2022-08-08T05:24:49.389Z,20.12
2022-08-08T05:27:20.295Z,20.16
2022-08-08T05:29:50.243Z,19.81
2022-08-08T05:32:19.128Z,19.96
2022-08-08T05:34:53.744Z,19.84
2022-08-08T05:37:51.976Z,19.94
2022-08-08T05:40:17.043Z,19.80
2022-08-08T05:42:49.902Z,20.31
2022-08-08T05:45:31.177Z,20.39
2022-08-08T05:48:08.271Z,20.42
2022-08-08T05:50:38.722Z,20.08
2022-08-08T05:53:54.463Z,20.60
2022-08-08T05:56:11.313Z,20.39
2022-08-08T05:58:53.911Z,20.71
2022-08-08T06:01:52.605Z,20.71
2022-08-08T06:04:23.376Z,20.78
2022-08-08T06:06:56.576Z,20.77
2022-08-08T06:10:00.360Z,20.48
2022-08-08T06:12:29.999Z,20.40
2022-08-08T06:15:03.223Z,20.77
2022-08-08T06:17:51.204Z,20.68
2022-08-08T06:20:22.946Z,20.79
2022-08-08T06:22:53.419Z,20.89
2022-08-08T06:26:36.263Z,20.41
2022-08-08T06:28:29.212Z,21.02
2022-08-08T06:31:01.697Z,21.13
2022-08-08T06:34:25.706Z,20.85
2022-08-08T06:36:41.639Z,20.99
2022-08-08T06:39:24.681Z,21.00
2022-08-08T06:42:02.805Z,21.10
2022-08-08T06:44:49.223Z,21.02
2022-08-08T06:47:22.268Z,20.69
2022-08-08T06:49:56.832Z,20.53
2022-08-08T06:52:27.801Z,21.04
2022-08-08T06:54:58.753Z,21.21
2022-08-08T06:57:29.275Z,19.88
2022-08-08T07:00:12.816Z,21.24
2022-08-08T07:02:51.923Z,20.82
2022-08-08T07:05:24.963Z,20.35
2022-08-08T07:08:27.711Z,21.29
2022-08-08T07:10:59.066Z,21.22
2022-08-08T07:14:00.737Z,21.23
2022-08-08T07:17:19.788Z,20.92
2022-08-08T07:20:04.629Z,21.25
2022-08-08T07:23:04.849Z,21.22
2022-08-08T07:25:39.616Z,20.93
2022-08-08T07:28:19.865Z,21.23
2022-08-08T07:30:49.540Z,20.86
2022-08-08T07:33:22.673Z,21.01
2022-08-08T07:35:51.304Z,20.99
2022-08-08T07:38:24.750Z,20.98
2022-08-08T07:40:59.151Z,20.69
2022-08-08T07:43:38.016Z,21.18
2022-08-08T07:46:23.310Z,21.21
2022-08-08T07:48:54.155Z,21.22
2022-08-08T07:51:44.931Z,21.13
2022-08-08T07:54:26.818Z,21.23
2022-08-08T07:57:08.867Z,21.26
2022-08-08T07:59:51.847Z,21.29
2022-08-08T08:02:34.951Z,20.77
2022-08-08T08:05:14.867Z,21.22
2022-08-08T08:07:53.052Z,21.35
2022-08-08T08:10:30.566Z,21.32
2022-08-08T08:13:25.235Z,21.34
2022-08-08T08:16:01.963Z,21.42
2022-08-08T08:19:02.248Z,21.35
2022-08-08T08:21:57.845Z,21.33
2022-08-08T08:24:42.993Z,21.24
2022-08-08T08:27:14.177Z,21.21
2022-08-08T08:29:44.039Z,20.83
2022-08-08T08:32:31.795Z,21.12
2022-08-08T08:35:07.713Z,20.46
2022-08-08T08:37:59.222Z,20.97
2022-08-08T08:40:25.302Z,21.45
2022-08-08T08:42:57.995Z,21.45
2022-08-08T08:45:28.874Z,21.53
2022-08-08T08:48:01.382Z,21.18
2022-08-08T08:50:36.732Z,21.42
2022-08-08T08:53:55.278Z,21.69
2022-08-08T08:56:08.384Z,21.87
2022-08-08T08:58:46.834Z,21.55
2022-08-08T09:01:45.502Z,21.76
2022-08-08T09:04:31.608Z,21.99
2022-08-08T09:07:12.808Z,21.52
2022-08-08T09:09:55.380Z,22.12
2022-08-08T09:12:31.694Z,22.44
2022-08-08T09:15:01.192Z,22.38
2022-08-08T09:17:42.021Z,21.66
2022-08-08T09:21:58.127Z,22.62
2022-08-08T09:23:10.469Z,22.48
2022-08-08T09:25:54.758Z,22.59
2022-08-08T09:28:37.569Z,22.29
2022-08-08T09:31:14.962Z,22.72
2022-08-08T09:34:14.535Z,22.43
2022-08-08T09:36:39.182Z,22.58
2022-08-08T09:39:15.683Z,22.53
2022-08-08T09:42:19.967Z,22.27
2022-08-08T09:45:15.371Z,21.65
2022-08-08T09:48:09.741Z,22.16
2022-08-08T09:50:44.059Z,22.17
2022-08-08T09:53:23.555Z,22.27
2022-08-08T09:56:05.839Z,22.28
2022-08-08T09:58:45.463Z,21.46
2022-08-08T10:01:14.200Z,22.26
2022-08-08T10:04:04.859Z,22.17
2022-08-08T10:06:42.111Z,22.23
2022-08-08T10:09:12.353Z,22.18
2022-08-08T10:12:28.273Z,21.40
2022-08-08T10:14:39.505Z,21.54
2022-08-08T10:17:57.349Z,21.40
2022-08-08T10:20:04.319Z,21.55
2022-08-08T10:22:33.951Z,21.76
2022-08-08T10:25:16.581Z,21.55
2022-08-08T10:27:44.335Z,21.61
2022-08-08T10:30:15.903Z,21.55
2022-08-08T10:32:51.385Z,21.87
2022-08-08T10:36:07.208Z,21.82
2022-08-08T10:38:15.206Z,21.85
2022-08-08T10:40:45.996Z,21.83
2022-08-08T10:43:14.398Z,20.94
2022-08-08T10:45:56.108Z,21.67
2022-08-08T10:48:33.509Z,21.73
2022-08-08T10:51:14.189Z,21.67
2022-08-08T10:53:57.119Z,21.48
2022-08-08T10:56:27.526Z,21.64
2022-08-08T10:59:05.279Z,21.20
2022-08-08T11:01:33.687Z,21.64
2022-08-08T11:04:04.439Z,21.70
2022-08-08T11:06:34.955Z,21.22
2022-08-08T11:09:15.499Z,21.53
2022-08-08T11:12:05.564Z,21.76
2022-08-08T11:14:34.911Z,21.89
2022-08-08T11:17:03.156Z,21.90
2022-08-08T11:19:35.993Z,21.57
2022-08-08T11:22:03.958Z,21.92
2022-08-08T11:24:35.604Z,21.85
2022-08-08T11:27:10.310Z,21.63
2022-08-08T11:29:50.971Z,21.69
2022-08-08T11:32:29.455Z,21.31
2022-08-08T11:35:27.071Z,21.91
2022-08-08T11:38:36.387Z,21.83
2022-08-08T11:40:52.563Z,21.88
2022-08-08T11:43:23.748Z,21.93
2022-08-08T11:46:09.816Z,21.81
2022-08-08T11:48:41.612Z,21.91
2022-08-08T11:51:29.947Z,21.80
2022-08-08T11:54:01.279Z,21.58
2022-08-08T11:56:34.952Z,22.10
2022-08-08T11:59:12.287Z,22.16
2022-08-08T12:01:39.530Z,21.88
2022-08-08T12:04:08.647Z,22.02
2022-08-08T12:06:35.694Z,21.54
2022-08-08T12:09:08.600Z,21.90
2022-08-08T12:11:41.879Z,21.96
2022-08-08T12:14:11.789Z,21.46
2022-08-08T12:16:49.009Z,22.11
2022-08-08T12:19:16.350Z,21.94
2022-08-08T12:22:09.005Z,22.06
2022-08-08T12:24:54.301Z,21.92
2022-08-08T12:27:26.700Z,22.09
2022-08-08T12:29:56.727Z,21.03
2022-08-08T12:32:23.879Z,22.13
2022-08-08T12:35:04.432Z,21.74
2022-08-08T12:37:41.284Z,21.89
2022-08-08T12:40:23.896Z,22.28
2022-08-08T12:42:52.627Z,22.25
2022-08-08T12:45:59.155Z,21.73
2022-08-08T12:48:36.923Z,22.07
2022-08-08T12:51:10.786Z,22.17
2022-08-08T12:53:57.483Z,22.29
2022-08-08T12:56:37.658Z,21.88
2022-08-08T12:59:20.571Z,22.26
2022-08-08T13:02:06.853Z,21.69
2022-08-08T13:04:34.587Z,22.22
2022-08-08T13:07:11.960Z,21.98
2022-08-08T13:10:04.506Z,22.32
2022-08-08T13:12:36.186Z,21.93
2022-08-08T13:15:16.761Z,22.39
2022-08-08T13:18:07.874Z,22.24
2022-08-08T13:20:31.818Z,21.85
2022-08-08T13:23:30.214Z,22.29
2022-08-08T13:25:50.448Z,22.37
2022-08-08T13:28:31.836Z,22.34
2022-08-08T13:31:01.860Z,22.03
2022-08-08T13:33:42.690Z,22.12
2022-08-08T13:36:11.351Z,22.36
2022-08-08T13:38:39.865Z,22.28
2022-08-08T13:41:16.538Z,22.40
2022-08-08T13:43:49.719Z,22.51
2022-08-08T13:46:27.408Z,22.47
2022-08-08T13:50:33.791Z,22.52
2022-08-08T13:51:57.998Z,22.53
2022-08-08T13:54:29.582Z,22.57
2022-08-08T13:57:11.364Z,22.52
2022-08-08T13:59:44.456Z,22.54
2022-08-08T14:02:21.556Z,22.56
2022-08-08T14:04:57.057Z,22.60
2022-08-08T14:07:29.723Z,22.58
2022-08-08T14:10:11.991Z,22.67
2022-08-08T14:12:43.796Z,22.67
2022-08-08T14:15:31.546Z,22.28
2022-08-08T14:18:34.522Z,22.54
2022-08-08T14:21:07.822Z,22.47
2022-08-08T14:24:04.729Z,22.31
2022-08-08T14:26:33.316Z,22.55
2022-08-08T14:29:01.507Z,22.55
2022-08-08T14:32:06.135Z,22.57
2022-08-08T14:34:23.164Z,22.69
2022-08-08T14:36:53.384Z,22.52
2022-08-08T14:39:24.624Z,22.04
2022-08-08T14:42:07.754Z,22.48
2022-08-08T14:44:35.519Z,21.99
2022-08-08T14:47:16.965Z,22.38
2022-08-08T14:50:06.777Z,22.35
2022-08-08T14:52:58.925Z,22.58
2022-08-08T14:55:35.345Z,22.37
2022-08-08T14:58:11.952Z,21.54
2022-08-08T15:00:45.271Z,22.34
2022-08-08T15:03:14.625Z,22.14
2022-08-08T15:05:43.329Z,22.04
2022-08-08T15:08:34.703Z,22.02
2022-08-08T15:11:10.445Z,22.29
2022-08-08T15:14:03.008Z,22.30
2022-08-08T15:16:28.723Z,22.25
2022-08-08T15:18:55.891Z,22.27
2022-08-08T15:21:23.038Z,22.34
2022-08-08T15:23:57.147Z,21.86
2022-08-08T15:26:25.776Z,22.30
2022-08-08T15:28:54.070Z,22.20
2022-08-08T15:31:49.027Z,22.36
2022-08-08T15:34:29.051Z,21.97
2022-08-08T15:37:03.054Z,21.93
2022-08-08T15:39:37.988Z,21.93
2022-08-08T15:42:12.991Z,22.02
2022-08-08T15:44:42.235Z,22.19
2022-08-08T15:47:15.674Z,21.81
2022-08-08T15:49:48.523Z,22.18
2022-08-08T15:52:17.627Z,22.17
2022-08-08T15:54:47.797Z,22.14
2022-08-08T15:57:19.137Z,21.98
2022-08-08T16:00:05.944Z,21.72
2022-08-08T16:02:44.109Z,21.93
2022-08-08T16:05:14.169Z,21.52
2022-08-08T16:07:51.959Z,22.01
2022-08-08T16:13:05.741Z,21.85
2022-08-08T16:13:45.206Z,21.62
2022-08-08T16:16:12.737Z,21.97
2022-08-08T16:18:43.619Z,21.94
2022-08-08T16:21:27.085Z,21.52
2022-08-08T16:23:56.396Z,21.73
2022-08-08T16:26:32.790Z,21.87
2022-08-08T16:29:01.695Z,21.76
2022-08-08T16:31:30.552Z,21.72
2022-08-08T16:33:59.611Z,21.88
2022-08-08T16:36:33.434Z,21.87
2022-08-08T16:39:10.013Z,21.71
2022-08-08T16:41:50.561Z,21.64
2022-08-08T16:44:27.734Z,21.82
2022-08-08T16:47:16.339Z,21.76
2022-08-08T16:49:43.455Z,21.72
2022-08-08T16:55:05.346Z,21.69
2022-08-08T16:55:33.876Z,21.45
2022-08-08T16:58:14.528Z,21.64
2022-08-08T17:00:35.246Z,21.77
2022-08-08T17:03:03.875Z,21.44
2022-08-08T17:05:44.481Z,21.41
2022-08-08T17:08:13.922Z,21.50
2022-08-08T17:10:53.618Z,21.41
2022-08-08T17:13:27.500Z,21.34
2022-08-08T17:16:07.780Z,21.44
2022-08-08T17:18:42.672Z,21.49
2022-08-08T17:21:12.661Z,21.25
2022-08-08T17:23:58.316Z,21.47
2022-08-08T17:26:29.347Z,21.25
2022-08-08T17:28:58.673Z,21.34
2022-08-08T17:31:45.721Z,20.94
2022-08-08T17:34:37.190Z,21.22
2022-08-08T17:37:06.637Z,21.02
2022-08-08T17:40:03.166Z,20.89
2022-08-08T17:42:25.362Z,21.47
2022-08-08T17:44:53.198Z,21.19
2022-08-08T17:47:23.783Z,21.23
2022-08-08T17:49:53.082Z,21.16
2022-08-08T17:52:34.254Z,21.14
2022-08-08T17:55:05.587Z,20.06
2022-08-08T17:57:38.575Z,21.16
2022-08-08T18:00:13.235Z,21.00
2022-08-08T18:02:52.174Z,21.16
2022-08-08T18:05:44.140Z,21.14
2022-08-08T18:08:25.113Z,20.61
2022-08-08T18:11:04.963Z,20.55
2022-08-08T18:13:35.047Z,20.98
2022-08-08T18:16:10.198Z,20.93
2022-08-08T18:18:42.387Z,20.72
2022-08-08T18:21:10.794Z,20.93
2022-08-08T18:23:52.860Z,20.65
2022-08-08T18:26:23.389Z,20.63
2022-08-08T18:28:55.548Z,20.67
2022-08-08T18:31:22.675Z,20.72
2022-08-08T18:34:11.291Z,20.64
2022-08-08T18:36:38.028Z,20.54
2022-08-08T18:39:06.371Z,20.62
2022-08-08T18:41:51.528Z,20.42
2022-08-08T18:44:20.486Z,20.23
2022-08-08T18:46:55.691Z,20.31
2022-08-08T18:49:32.291Z,20.21
2022-08-08T18:52:18.486Z,20.51
2022-08-08T18:54:58.986Z,20.20
2022-08-08T18:57:27.537Z,20.41
2022-08-08T19:00:01.262Z,20.53
2022-08-08T19:02:31.076Z,20.52
2022-08-08T19:04:58.120Z,20.27
2022-08-08T19:07:29.750Z,19.93
2022-08-08T19:10:13.684Z,20.05
2022-08-08T19:12:44.749Z,20.36
2022-08-08T19:15:23.622Z,20.25
2022-08-08T19:18:33.276Z,20.24
2022-08-08T19:20:39.602Z,20.34
2022-08-08T19:23:10.791Z,20.34
2022-08-08T19:26:26.957Z,19.82
2022-08-08T19:28:25.438Z,20.20
2022-08-08T19:31:04.079Z,20.33
2022-08-08T19:33:51.897Z,19.82
2022-08-08T19:36:25.059Z,19.73
2022-08-08T19:38:55.873Z,20.01
2022-08-08T19:41:30.930Z,19.79
2022-08-08T19:44:03.025Z,20.15
2022-08-08T19:46:33.709Z,19.51
2022-08-08T19:49:04.218Z,20.06
2022-08-08T19:51:34.107Z,20.07
2022-08-08T19:54:02.192Z,20.01
2022-08-08T19:56:39.846Z,19.52
2022-08-08T19:59:12.849Z,20.00
2022-08-08T20:02:02.306Z,20.04
2022-08-08T20:04:28.155Z,19.98
2022-08-08T20:06:57.111Z,19.70
2022-08-08T20:09:25.306Z,19.54
2022-08-08T20:11:57.239Z,19.32
2022-08-08T20:14:34.871Z,19.71
2022-08-08T20:17:04.395Z,19.83
2022-08-08T20:19:34.221Z,19.81
2022-08-08T20:22:13.403Z,19.68
2022-08-08T20:24:48.641Z,19.66
2022-08-08T20:27:20.253Z,19.10
2022-08-08T20:30:00.477Z,19.52
2022-08-08T20:32:31.956Z,19.18
2022-08-08T20:35:01.129Z,19.69
2022-08-08T20:37:46.856Z,19.64
2022-08-08T20:40:33.470Z,19.54
2022-08-08T20:43:16.228Z,19.61
2022-08-08T20:45:57.270Z,19.53
2022-08-08T20:48:29.227Z,19.48
2022-08-08T20:50:56.299Z,19.46
2022-08-08T20:53:58.125Z,19.49
2022-08-08T20:56:10.458Z,19.47
2022-08-08T20:58:47.981Z,19.37
2022-08-08T21:01:20.085Z,19.22
2022-08-08T21:03:59.758Z,19.35
2022-08-08T21:06:52.183Z,19.43
2022-08-08T21:09:16.209Z,18.92
2022-08-08T21:11:51.856Z,19.23
2022-08-08T21:14:30.405Z,19.30
2022-08-08T21:17:06.394Z,18.50
2022-08-08T21:19:45.925Z,19.32
2022-08-08T21:22:15.649Z,19.32
2022-08-08T21:24:52.941Z,19.24
2022-08-08T21:28:06.516Z,18.82
2022-08-08T21:30:19.300Z,19.18
2022-08-08T21:32:51.178Z,19.04
2022-08-08T21:36:18.258Z,18.83
2022-08-08T21:38:11.821Z,19.08
2022-08-08T21:40:55.583Z,19.21
2022-08-08T21:43:34.275Z,19.16
2022-08-08T21:48:20.427Z,19.16
2022-08-08T21:48:55.409Z,18.78
2022-08-08T21:54:16.871Z,19.15
2022-08-08T21:54:35.172Z,19.25
2022-08-08T21:57:03.277Z,18.96
2022-08-08T22:00:01.511Z,19.34
2022-08-08T22:02:22.807Z,19.27
2022-08-08T22:04:52.982Z,19.14
2022-08-08T22:07:20.223Z,18.71
2022-08-08T22:09:53.334Z,19.27
2022-08-08T22:12:20.295Z,19.28
2022-08-08T22:14:49.959Z,19.23
2022-08-08T22:17:19.138Z,19.19
2022-08-08T22:20:11.407Z,18.84
2022-08-08T22:22:36.097Z,19.44
2022-08-08T22:25:12.510Z,18.12
2022-08-08T22:28:03.704Z,19.21
2022-08-08T22:30:41.529Z,19.11
2022-08-08T22:34:10.831Z,19.05
2022-08-08T22:36:04.784Z,18.82
2022-08-08T22:38:48.961Z,18.43
2022-08-08T22:41:21.787Z,18.74
2022-08-08T22:44:01.193Z,17.99
2022-08-08T22:46:33.124Z,18.40
2022-08-08T22:49:00.547Z,18.32
2022-08-08T22:51:29.283Z,18.50
2022-08-08T22:54:33.780Z,18.59
2022-08-08T22:56:50.188Z,18.47
2022-08-08T22:59:18.602Z,18.06
2022-08-08T23:02:02.371Z,18.46
2022-08-08T23:04:32.629Z,18.10
2022-08-08T23:07:02.799Z,18.24
2022-08-08T23:09:31.264Z,18.50
2022-08-08T23:12:29.153Z,17.89
2022-08-08T23:14:56.380Z,17.98
2022-08-08T23:17:30.127Z,18.50
2022-08-08T23:19:57.260Z,18.17
2022-08-08T23:22:24.254Z,17.84
2022-08-08T23:24:51.754Z,18.04
2022-08-08T23:27:46.484Z,17.99
2022-08-08T23:30:09.259Z,18.31
2022-08-08T23:32:44.025Z,18.33
2022-08-08T23:35:12.609Z,17.85
2022-08-08T23:38:01.109Z,17.93
2022-08-08T23:40:30.941Z,18.47
2022-08-08T23:42:58.200Z,18.42
2022-08-08T23:49:04.183Z,18.40
2022-08-08T23:49:04.330Z,18.51
2022-08-08T23:51:03.947Z,18.39
2022-08-08T23:54:05.781Z,18.41
2022-08-08T23:56:23.855Z,18.26
2022-08-08T23:58:59.511Z,18.43
